createdAt,value
2022-09-14T00:01:23.696Z,5.95
2022-09-14T00:03:47.936Z,7.53
2022-09-14T00:06:16.351Z,8.57
2022-09-14T00:08:44.112Z,9.10
2022-09-14T00:11:13.548Z,4.90
2022-09-14T00:13:43.476Z,9.45
2022-09-14T00:16:22.667Z,8.18
2022-09-14T00:18:54.549Z,7.55
2022-09-14T00:21:22.299Z,8.85
2022-09-14T00:23:49.043Z,6.95
2022-09-14T00:26:18.810Z,8.68
2022-09-14T00:28:50.741Z,8.90
2022-09-14T00:31:18.862Z,11.10
2022-09-14T00:33:48.055Z,10.27
2022-09-14T00:36:16.825Z,11.95
2022-09-14T00:38:43.571Z,9.15
2022-09-14T00:41:16.319Z,4.93
2022-09-14T00:43:58.192Z,8.57
2022-09-14T00:46:27.700Z,10.95
2022-09-14T00:48:56.040Z,7.43
2022-09-14T00:51:23.419Z,12.65
2022-09-14T00:53:50.211Z,12.90
2022-09-14T00:56:17.081Z,13.38
2022-09-14T00:58:46.693Z,10.05
2022-09-14T01:01:14.065Z,8.02
2022-09-14T01:03:41.052Z,11.40
2022-09-14T01:06:27.173Z,11.15
2022-09-14T01:09:09.444Z,12.30
2022-09-14T01:12:06.172Z,7.10
2022-09-14T01:14:47.653Z,5.55
2022-09-14T01:17:44.724Z,14.60
2022-09-14T01:20:25.971Z,9.38
2022-09-14T01:23:08.346Z,11.48
2022-09-14T01:25:59.754Z,9.27
2022-09-14T01:28:52.471Z,12.45
2022-09-14T01:31:48.273Z,9.98
2022-09-14T01:34:28.851Z,6.80
2022-09-14T01:37:03.557Z,10.98
2022-09-14T01:39:35.242Z,8.57
2022-09-14T01:42:02.532Z,11.05
2022-09-14T01:44:35.951Z,12.18
2022-09-14T01:47:15.274Z,6.70
2022-09-14T01:49:52.436Z,9.35
2022-09-14T01:52:25.902Z,6.97
2022-09-14T01:55:07.612Z,8.60
2022-09-14T01:57:40.921Z,6.63
2022-09-14T02:00:18.822Z,7.28
2022-09-14T02:03:00.342Z,11.05
2022-09-14T02:05:50.779Z,8.85
2022-09-14T02:08:17.896Z,6.68
2022-09-14T02:10:44.525Z,8.18
2022-09-14T02:13:11.114Z,8.30
2022-09-14T02:15:38.942Z,7.28
2022-09-14T02:18:05.862Z,10.63
2022-09-14T02:20:42.922Z,8.25
2022-09-14T02:23:09.701Z,5.78
2022-09-14T02:25:36.889Z,9.32
2022-09-14T02:28:04.511Z,7.57
2022-09-14T02:30:37.218Z,8.25
2022-09-14T02:33:19.476Z,11.93
2022-09-14T02:35:54.162Z,10.15
2022-09-14T02:38:40.620Z,7.60
2022-09-14T02:41:49.017Z,6.57
2022-09-14T02:44:35.332Z,10.90
2022-09-14T02:47:10.209Z,10.13
2022-09-14T02:49:40.199Z,11.27
2022-09-14T02:52:16.037Z,9.18
2022-09-14T02:54:52.142Z,5.05
2022-09-14T02:57:18.820Z,8.18
2022-09-14T02:59:45.512Z,11.95
2022-09-14T03:02:15.520Z,6.85
2022-09-14T03:04:42.320Z,6.97
2022-09-14T03:07:09.243Z,11.60
2022-09-14T03:09:35.859Z,7.50
2022-09-14T03:12:02.795Z,14.00
2022-09-14T03:14:29.504Z,10.13
2022-09-14T03:16:56.352Z,10.07
2022-09-14T03:19:23.190Z,9.15
2022-09-14T03:21:49.785Z,8.98
2022-09-14T03:24:16.387Z,7.38
2022-09-14T03:26:43.106Z,10.95
2022-09-14T03:29:09.698Z,5.32
2022-09-14T03:31:36.774Z,8.30
2022-09-14T03:34:03.650Z,8.95
2022-09-14T03:36:31.590Z,7.35
2022-09-14T03:39:00.156Z,12.48
2022-09-14T03:41:28.191Z,8.65
2022-09-14T03:43:54.903Z,7.20
2022-09-14T03:46:23.736Z,8.77
2022-09-14T03:48:52.062Z,7.10
2022-09-14T03:51:18.756Z,6.55
2022-09-14T03:53:45.826Z,8.20
2022-09-14T03:56:16.473Z,6.97
2022-09-14T03:58:44.235Z,8.15
2022-09-14T04:01:14.572Z,6.65
2022-09-14T04:03:41.843Z,8.32
2022-09-14T04:06:09.238Z,7.38
2022-09-14T04:08:38.570Z,7.07
2022-09-14T04:11:10.843Z,10.43
2022-09-14T04:13:38.503Z,4.85
2022-09-14T04:16:05.566Z,12.70
2022-09-14T04:18:32.807Z,9.27
2022-09-14T04:21:07.243Z,8.82
2022-09-14T04:23:46.222Z,10.13
2022-09-14T04:26:20.307Z,10.20
2022-09-14T04:28:46.946Z,5.78
2022-09-14T04:31:14.272Z,14.50
2022-09-14T04:33:43.236Z,7.65
2022-09-14T04:36:14.986Z,9.65
2022-09-14T04:38:42.530Z,7.53
2022-09-14T04:41:12.276Z,7.45
2022-09-14T04:43:39.637Z,8.75
2022-09-14T04:46:09.959Z,7.03
2022-09-14T04:48:36.879Z,16.60
2022-09-14T04:51:18.178Z,13.48
2022-09-14T04:53:52.466Z,3.75
2022-09-14T04:56:24.295Z,8.27
2022-09-14T04:58:54.239Z,11.55
2022-09-14T05:01:23.685Z,10.25
2022-09-14T05:03:51.141Z,8.73
2022-09-14T05:06:28.849Z,7.68
2022-09-14T05:08:56.842Z,9.35
2022-09-14T05:11:25.951Z,11.30
2022-09-14T05:13:52.646Z,9.77
2022-09-14T05:16:29.683Z,7.53
2022-09-14T05:19:01.995Z,9.05
2022-09-14T05:21:30.545Z,11.50
2022-09-14T05:24:00.048Z,9.05
2022-09-14T05:26:28.720Z,10.63
2022-09-14T05:28:57.823Z,7.13
2022-09-14T05:31:26.674Z,10.30
2022-09-14T05:33:54.027Z,11.32
2022-09-14T05:36:21.349Z,14.73
2022-09-14T05:38:48.136Z,6.63
2022-09-14T05:41:17.282Z,10.90
2022-09-14T05:43:44.363Z,9.55
2022-09-14T05:46:17.305Z,10.05
2022-09-14T05:48:44.130Z,9.80
2022-09-14T05:51:19.111Z,10.80
2022-09-14T05:53:50.902Z,6.80
2022-09-14T05:56:26.113Z,10.18
2022-09-14T05:58:53.482Z,10.77
2022-09-14T06:01:29.444Z,8.07
2022-09-14T06:04:00.246Z,7.32
2022-09-14T06:06:30.046Z,13.80
2022-09-14T06:08:57.211Z,8.63
2022-09-14T06:11:27.042Z,8.80
2022-09-14T06:13:54.503Z,11.13
2022-09-14T06:16:26.425Z,9.85
2022-09-14T06:18:55.330Z,11.50
2022-09-14T06:21:23.498Z,9.55
2022-09-14T06:23:51.934Z,9.48
2022-09-14T06:26:18.584Z,11.90
2022-09-14T06:28:45.291Z,12.25
2022-09-14T06:31:14.053Z,10.65
2022-09-14T06:33:45.813Z,11.43
2022-09-14T06:36:15.976Z,8.85
2022-09-14T06:38:42.812Z,7.10
2022-09-14T06:41:12.319Z,12.98
2022-09-14T06:43:40.745Z,13.57
2022-09-14T06:46:07.605Z,11.45
2022-09-14T06:48:38.929Z,8.35
2022-09-14T06:51:14.861Z,11.30
2022-09-14T06:53:42.088Z,9.52
2022-09-14T06:56:08.823Z,12.10
2022-09-14T06:58:36.508Z,10.52
2022-09-14T07:01:05.622Z,8.90
2022-09-14T07:03:40.203Z,10.32
2022-09-14T07:06:16.100Z,11.40
2022-09-14T07:08:58.093Z,13.88
2022-09-14T07:11:29.525Z,11.02
2022-09-14T07:14:00.042Z,9.98
2022-09-14T07:16:28.322Z,8.93
2022-09-14T07:19:00.289Z,7.35
2022-09-14T07:21:26.937Z,9.23
2022-09-14T07:23:55.637Z,11.57
2022-09-14T07:26:24.319Z,11.98
2022-09-14T07:28:57.867Z,11.23
2022-09-14T07:34:02.704Z,7.43
2022-09-14T07:36:34.595Z,10.20
2022-09-14T07:39:04.169Z,8.30
2022-09-14T07:41:32.964Z,10.35
2022-09-14T07:44:01.188Z,11.10
2022-09-14T07:46:29.395Z,8.43
2022-09-14T07:48:58.182Z,12.20
2022-09-14T07:51:26.064Z,11.15
2022-09-14T07:53:53.071Z,14.60
2022-09-14T07:56:21.704Z,8.15
2022-09-14T07:58:54.796Z,11.55
2022-09-14T08:01:23.735Z,8.10
2022-09-14T08:03:50.911Z,15.00
2022-09-14T08:06:26.270Z,10.52
2022-09-14T08:08:54.827Z,10.50
2022-09-14T08:11:27.073Z,14.10
2022-09-14T08:14:14.065Z,10.38
2022-09-14T08:16:41.357Z,11.02
2022-09-14T08:19:17.231Z,11.45
2022-09-14T08:21:47.330Z,11.80
2022-09-14T08:24:17.243Z,11.52
2022-09-14T08:26:44.127Z,12.07
2022-09-14T08:29:16.937Z,13.30
2022-09-14T08:31:46.087Z,12.57
2022-09-14T08:34:13.542Z,17.27
2022-09-14T08:36:41.602Z,11.38
2022-09-14T08:39:10.601Z,13.57
2022-09-14T08:41:47.410Z,14.75
2022-09-14T08:44:20.126Z,10.20
2022-09-14T08:47:01.781Z,12.57
2022-09-14T08:49:48.529Z,12.18
2022-09-14T08:52:30.982Z,12.70
2022-09-14T08:55:01.037Z,12.30
2022-09-14T08:57:37.961Z,11.18
2022-09-14T09:00:14.808Z,15.32
2022-09-14T09:03:16.991Z,14.88
2022-09-14T09:06:10.928Z,9.77
2022-09-14T09:08:55.455Z,12.10
2022-09-14T09:11:28.815Z,13.25
2022-09-14T09:13:56.554Z,19.30
2022-09-14T09:16:24.892Z,9.55
2022-09-14T09:18:58.667Z,13.98
2022-09-14T09:21:38.398Z,13.48
2022-09-14T09:24:40.676Z,8.55
2022-09-14T09:27:15.005Z,10.18
2022-09-14T09:29:42.561Z,10.55
2022-09-14T09:32:25.154Z,10.98
2022-09-14T09:35:32.718Z,9.55
2022-09-14T09:38:16.014Z,13.98
2022-09-14T09:40:50.661Z,12.80
2022-09-14T09:43:38.528Z,13.25
2022-09-14T09:46:08.114Z,16.13
2022-09-14T09:48:37.884Z,15.50
2022-09-14T09:51:25.477Z,15.25
2022-09-14T09:53:55.686Z,8.90
2022-09-14T09:56:32.568Z,12.07
2022-09-14T09:59:00.418Z,9.43
2022-09-14T10:01:30.767Z,13.05
2022-09-14T10:04:06.025Z,11.93
2022-09-14T10:06:42.292Z,11.25
2022-09-14T10:09:14.651Z,12.75
2022-09-14T10:11:41.720Z,9.50
2022-09-14T10:14:31.396Z,14.85
2022-09-14T10:17:17.101Z,11.30
2022-09-14T10:19:52.363Z,12.23
2022-09-14T10:22:28.303Z,10.20
2022-09-14T10:25:15.268Z,7.28
2022-09-14T10:27:50.510Z,9.25
2022-09-14T10:30:20.152Z,13.05
2022-09-14T10:33:02.197Z,8.85
2022-09-14T10:35:41.758Z,9.02
2022-09-14T10:38:41.965Z,10.52
2022-09-14T10:41:11.553Z,11.20
2022-09-14T10:43:56.506Z,12.82
2022-09-14T10:46:34.593Z,9.52
2022-09-14T10:49:33.592Z,9.57
2022-09-14T10:52:46.273Z,11.85
2022-09-14T10:56:02.096Z,9.52
2022-09-14T10:58:42.506Z,10.85
2022-09-14T11:01:39.242Z,10.65
2022-09-14T11:04:08.972Z,11.13
2022-09-14T11:07:04.584Z,10.15
2022-09-14T11:09:46.547Z,8.07
2022-09-14T11:12:38.411Z,12.00
2022-09-14T11:15:48.683Z,9.90
2022-09-14T11:18:52.772Z,9.07
2022-09-14T11:21:32.839Z,11.10
2022-09-14T11:24:33.446Z,12.02
2022-09-14T11:27:10.972Z,10.60
2022-09-14T11:29:48.606Z,14.95
2022-09-14T11:32:39.468Z,16.80
2022-09-14T11:35:19.044Z,9.05
2022-09-14T11:38:00.864Z,11.80
2022-09-14T11:40:33.046Z,10.07
2022-09-14T11:43:06.061Z,7.97
2022-09-14T11:45:42.310Z,5.88
2022-09-14T11:48:46.171Z,10.90
2022-09-14T11:51:21.972Z,7.32
2022-09-14T11:53:50.985Z,7.32
2022-09-14T11:56:31.483Z,10.70
2022-09-14T11:59:07.913Z,7.13
2022-09-14T12:01:36.549Z,7.38
2022-09-14T12:04:09.626Z,12.15
2022-09-14T12:06:36.973Z,4.07
2022-09-14T12:09:24.107Z,3.78
2022-09-14T12:11:53.549Z,6.50
2022-09-14T12:14:30.527Z,4.97
2022-09-14T12:20:30.041Z,4.50
2022-09-14T12:23:05.023Z,2.97
2022-09-14T12:25:34.078Z,2.60
2022-09-14T12:28:00.892Z,2.53
2022-09-14T12:30:40.559Z,3.10
2022-09-14T12:33:37.080Z,3.70
2022-09-14T12:36:12.069Z,6.78
2022-09-14T12:38:41.571Z,5.60
2022-09-14T12:41:08.365Z,4.97
2022-09-14T12:43:35.273Z,3.42
2022-09-14T12:46:08.747Z,4.50
2022-09-14T12:51:32.799Z,3.72
2022-09-14T12:54:09.050Z,4.18
2022-09-14T12:56:58.677Z,5.88
2022-09-14T12:59:31.627Z,6.30
2022-09-14T13:02:16.951Z,5.55
2022-09-14T13:04:45.762Z,4.53
2022-09-14T13:07:19.203Z,4.97
2022-09-14T13:09:52.802Z,6.38
2022-09-14T13:12:37.102Z,4.72
2022-09-14T13:15:08.300Z,7.75
2022-09-14T13:17:34.991Z,5.22
2022-09-14T13:20:06.150Z,4.80
2022-09-14T13:22:33.435Z,9.43
2022-09-14T13:25:03.758Z,10.07
2022-09-14T13:27:34.142Z,7.47
2022-09-14T13:30:04.829Z,6.07
2022-09-14T13:32:35.767Z,9.77
2022-09-14T13:35:05.274Z,8.10
2022-09-14T13:37:32.418Z,8.60
2022-09-14T13:39:59.813Z,10.63
2022-09-14T13:42:27.865Z,6.32
2022-09-14T13:44:55.020Z,12.73
2022-09-14T13:47:23.990Z,10.45
2022-09-14T13:49:53.172Z,13.57
2022-09-14T13:52:25.897Z,7.95
2022-09-14T13:55:25.144Z,7.55
2022-09-14T13:58:13.180Z,6.68
2022-09-14T14:01:02.802Z,8.63
2022-09-14T14:03:33.300Z,8.10
2022-09-14T14:06:23.744Z,9.60
2022-09-14T14:09:01.183Z,9.07
2022-09-14T14:11:36.609Z,10.52
2022-09-14T14:14:18.638Z,7.53
2022-09-14T14:17:13.558Z,6.60
2022-09-14T14:19:40.688Z,5.70
2022-09-14T14:22:16.308Z,7.85
2022-09-14T14:25:12.413Z,6.53
2022-09-14T14:27:37.682Z,8.55
2022-09-14T14:30:14.240Z,8.93
2022-09-14T14:32:41.444Z,8.18
2022-09-14T14:35:15.774Z,7.55
2022-09-14T14:37:42.891Z,6.80
2022-09-14T14:40:12.537Z,7.03
2022-09-14T14:42:39.565Z,10.30
2022-09-14T14:45:07.564Z,12.18
2022-09-14T14:47:34.206Z,7.93
2022-09-14T14:50:01.182Z,12.45
2022-09-14T14:52:27.849Z,10.55
2022-09-14T14:54:54.515Z,12.25
2022-09-14T14:57:21.280Z,12.88
2022-09-14T14:59:52.746Z,12.07
2022-09-14T15:02:19.401Z,10.18
2022-09-14T15:04:46.057Z,10.27
2022-09-14T15:07:12.599Z,9.48
2022-09-14T15:09:39.161Z,9.52
2022-09-14T15:12:05.869Z,10.65
2022-09-14T15:14:32.463Z,6.65
2022-09-14T15:17:00.401Z,9.05
2022-09-14T15:19:27.217Z,7.35
2022-09-14T15:21:58.575Z,10.35
2022-09-14T15:24:27.517Z,7.32
2022-09-14T15:26:54.337Z,8.63
2022-09-14T15:29:21.215Z,11.65
2022-09-14T15:31:48.166Z,8.38
2022-09-14T15:34:14.855Z,11.55
2022-09-14T15:36:47.787Z,9.68
2022-09-14T15:39:15.060Z,11.60
2022-09-14T15:41:42.589Z,11.00
2022-09-14T15:44:11.555Z,9.35
2022-09-14T15:46:39.170Z,11.50
2022-09-14T15:49:11.579Z,10.40
2022-09-14T15:51:42.377Z,10.13
2022-09-14T15:54:09.176Z,7.90
2022-09-14T15:56:35.879Z,12.02
2022-09-14T15:59:03.787Z,9.10
2022-09-14T16:01:31.489Z,9.63
2022-09-14T16:04:02.725Z,12.13
2022-09-14T16:06:29.489Z,13.07
2022-09-14T16:08:57.669Z,8.23
2022-09-14T16:11:24.998Z,10.50
2022-09-14T16:13:52.285Z,13.50
2022-09-14T16:16:20.400Z,9.45
2022-09-14T16:18:49.810Z,12.27
2022-09-14T16:21:19.262Z,8.75
2022-09-14T16:23:48.903Z,9.52
2022-09-14T16:26:18.755Z,7.75
2022-09-14T16:28:47.729Z,8.85
2022-09-14T16:31:26.927Z,8.02
2022-09-14T16:33:55.620Z,7.68
2022-09-14T16:36:27.525Z,7.20
2022-09-14T16:38:59.685Z,10.18
2022-09-14T16:41:31.471Z,9.20
2022-09-14T16:44:02.440Z,10.05
2022-09-14T16:46:30.740Z,13.02
2022-09-14T16:49:00.678Z,10.50
2022-09-14T16:51:29.664Z,8.40
2022-09-14T16:53:58.582Z,8.82
2022-09-14T16:56:31.542Z,5.97
2022-09-14T16:58:59.849Z,9.57
2022-09-14T17:01:28.673Z,8.63
2022-09-14T17:03:58.107Z,9.43
2022-09-14T17:06:29.143Z,8.35
2022-09-14T17:09:00.192Z,9.50
2022-09-14T17:11:28.935Z,9.60
2022-09-14T17:13:55.973Z,9.35
2022-09-14T17:16:24.519Z,11.00
2022-09-14T17:18:53.576Z,11.50
2022-09-14T17:21:23.352Z,8.40
2022-09-14T17:23:50.428Z,13.10
2022-09-14T17:26:19.316Z,12.35
2022-09-14T17:28:50.994Z,12.82
2022-09-14T17:31:22.764Z,10.82
2022-09-14T17:33:50.210Z,15.18
2022-09-14T17:36:16.971Z,10.93
2022-09-14T17:38:44.415Z,11.95
2022-09-14T17:41:17.002Z,7.70
2022-09-14T17:43:43.711Z,7.33
2022-09-14T17:46:16.129Z,7.88
2022-09-14T17:48:43.634Z,10.23
2022-09-14T17:51:20.323Z,12.32
2022-09-14T17:53:49.522Z,10.07
2022-09-14T17:56:17.832Z,12.43
2022-09-14T17:58:44.835Z,14.48
2022-09-14T18:01:14.278Z,14.27
2022-09-14T18:03:43.535Z,10.45
2022-09-14T18:06:12.375Z,10.27
2022-09-14T18:08:40.205Z,10.48
2022-09-14T18:11:13.618Z,11.73
2022-09-14T18:13:45.297Z,14.52
2022-09-14T18:16:13.819Z,10.77
2022-09-14T18:18:40.925Z,12.40
2022-09-14T18:21:08.657Z,9.35
2022-09-14T18:23:36.195Z,11.45
2022-09-14T18:26:06.737Z,12.45
2022-09-14T18:28:34.868Z,13.20
2022-09-14T18:31:03.510Z,15.00
2022-09-14T18:33:30.373Z,18.52
2022-09-14T18:35:57.606Z,10.82
2022-09-14T18:38:24.595Z,12.90
2022-09-14T18:40:51.426Z,14.27
2022-09-14T18:43:18.000Z,15.68
2022-09-14T18:45:45.605Z,16.85
2022-09-14T18:48:12.803Z,21.67
2022-09-14T18:50:40.939Z,17.63
2022-09-14T18:53:08.276Z,17.55
2022-09-14T18:55:35.460Z,19.83
2022-09-14T18:58:02.555Z,17.08
2022-09-14T19:00:29.600Z,23.50
2022-09-14T19:02:57.039Z,14.18
2022-09-14T19:05:26.763Z,19.45
2022-09-14T19:07:53.362Z,15.70
2022-09-14T19:10:20.458Z,16.90
2022-09-14T19:12:47.058Z,15.35
2022-09-14T19:15:13.822Z,18.50
2022-09-14T19:17:40.403Z,21.50
2022-09-14T19:20:08.504Z,21.35
2022-09-14T19:22:35.451Z,19.45
2022-09-14T19:25:02.184Z,15.65
2022-09-14T19:27:29.008Z,20.73
2022-09-14T19:29:55.662Z,22.27
2022-09-14T19:32:22.333Z,24.27
2022-09-14T19:34:49.575Z,18.77
2022-09-14T19:37:16.201Z,25.90
2022-09-14T19:39:43.841Z,17.30
2022-09-14T19:42:10.600Z,17.92
2022-09-14T19:44:37.555Z,17.85
2022-09-14T19:47:04.248Z,20.63
2022-09-14T19:49:30.885Z,17.45
2022-09-14T19:51:57.568Z,21.05
2022-09-14T19:54:24.971Z,15.90
2022-09-14T19:56:52.354Z,20.02
2022-09-14T19:59:19.633Z,24.40
2022-09-14T20:01:46.630Z,16.05
2022-09-14T20:04:15.688Z,17.63
2022-09-14T20:06:44.174Z,20.00
2022-09-14T20:09:13.841Z,18.35
2022-09-14T20:11:42.522Z,19.02
2022-09-14T20:14:14.888Z,20.45
2022-09-14T20:16:45.051Z,18.13
2022-09-14T20:19:17.030Z,16.70
2022-09-14T20:21:45.525Z,17.98
2022-09-14T20:24:19.159Z,18.27
2022-09-14T20:26:47.685Z,18.73
2022-09-14T20:29:15.631Z,20.90
2022-09-14T20:31:42.681Z,23.52
2022-09-14T20:34:09.590Z,18.42
2022-09-14T20:36:36.679Z,22.27
2022-09-14T20:39:03.402Z,19.70
2022-09-14T20:41:33.167Z,18.67
2022-09-14T20:44:00.210Z,20.20
2022-09-14T20:46:35.468Z,21.50
2022-09-14T20:49:04.519Z,24.10
2022-09-14T20:51:31.724Z,28.00
2022-09-14T20:53:58.542Z,25.15
2022-09-14T20:56:28.547Z,21.00
2022-09-14T20:58:58.013Z,21.63
2022-09-14T21:01:28.277Z,15.98
2022-09-14T21:03:55.629Z,20.75
2022-09-14T21:06:24.296Z,19.40
2022-09-14T21:08:51.991Z,21.20
2022-09-14T21:11:26.563Z,18.25
2022-09-14T21:13:54.710Z,20.15
2022-09-14T21:16:25.093Z,19.92
2022-09-14T21:19:00.810Z,20.38
2022-09-14T21:21:28.291Z,20.20
2022-09-14T21:23:57.028Z,17.08
2022-09-14T21:26:26.814Z,17.48
2022-09-14T21:28:58.929Z,22.27
2022-09-14T21:31:30.002Z,21.83
2022-09-14T21:34:01.664Z,19.05
2022-09-14T21:36:31.865Z,21.83
2022-09-14T21:39:00.022Z,19.98
2022-09-14T21:41:29.428Z,22.02
2022-09-14T21:43:56.922Z,20.08
2022-09-14T21:46:24.871Z,21.95
2022-09-14T21:48:52.370Z,21.10
2022-09-14T21:51:21.956Z,18.33
2022-09-14T21:53:52.607Z,21.75
2022-09-14T21:56:21.152Z,19.65
2022-09-14T21:59:14.129Z,18.40
2022-09-14T22:01:41.884Z,18.75
2022-09-14T22:04:13.870Z,22.52
2022-09-14T22:06:40.587Z,19.25
2022-09-14T22:09:07.213Z,19.95
2022-09-14T22:11:36.280Z,18.88
2022-09-14T22:14:06.214Z,15.82
2022-09-14T22:16:35.663Z,15.82
2022-09-14T22:19:05.518Z,14.93
2022-09-14T22:21:34.361Z,17.15
2022-09-14T22:24:04.358Z,17.48
2022-09-14T22:26:32.069Z,14.48
2022-09-14T22:28:59.292Z,15.23
2022-09-14T22:31:27.336Z,18.88
2022-09-14T22:33:56.018Z,15.90
2022-09-14T22:36:23.329Z,14.60
2022-09-14T22:38:51.360Z,18.73
2022-09-14T22:41:22.171Z,16.95
2022-09-14T22:43:49.531Z,14.88
2022-09-14T22:46:17.040Z,12.65
2022-09-14T22:48:44.852Z,18.27
2022-09-14T22:51:15.073Z,18.17
2022-09-14T22:53:42.071Z,14.68
2022-09-14T22:56:11.148Z,20.20
2022-09-14T22:58:39.267Z,21.88
2022-09-14T23:01:08.448Z,16.70
2022-09-14T23:03:35.329Z,18.45
2022-09-14T23:06:02.689Z,17.30
2022-09-14T23:08:30.670Z,20.10
2022-09-14T23:10:57.474Z,15.93
2022-09-14T23:13:24.077Z,24.45
2022-09-14T23:15:50.882Z,17.83
2022-09-14T23:18:17.491Z,19.75
2022-09-14T23:20:45.109Z,21.27
2022-09-14T23:23:12.231Z,22.80
2022-09-14T23:25:41.026Z,23.95
2022-09-14T23:28:11.751Z,20.38
2022-09-14T23:30:38.613Z,17.85
2022-09-14T23:33:06.025Z,20.75
2022-09-14T23:35:37.560Z,18.05
2022-09-14T23:38:04.680Z,21.38
2022-09-14T23:40:31.598Z,20.27
2022-09-14T23:42:58.674Z,20.52
2022-09-14T23:45:25.383Z,20.65
2022-09-14T23:47:52.011Z,23.05
2022-09-14T23:50:18.973Z,20.05
2022-09-14T23:52:47.224Z,19.05
2022-09-14T23:55:13.987Z,24.80
2022-09-14T23:57:40.948Z,22.02
